LEIB/IBZ METAR and TAF weather

Enter ICAO airport designator
Station Type Date Time Source
LEIB METAR 2019/08/25 18:30 UTC NOAA

LEIB 251830Z 06006KT 9999 FEW020 26/21 Q1016 NOSIG


Station Type Date Time Source
LEIB Decoded METAR 2019/08/25 18:30 UTC NOAA

Station name not available
Aug 25, 2019 - 02:30 PM EDT / 2019.08.25 1830 UTC
Wind: from the ENE (060 degrees) at 7 MPH (6 KT):0
Visibility: greater than 7 mile(s):0
Sky conditions: mostly clear
Temperature: 78 F (26 C)
Dew Point: 69 F (21 C)
Relative Humidity: 73%
Pressure (altimeter): 30.00 in. Hg (1016 hPa)
ob: LEIB 251830Z 06006KT 9999 FEW020 26/21 Q1016 NOSIG
cycle: 18

Station Type Date Time Source
LEIB TAF 2019/08/25 15:27 UTC NOAA

TAF LEIB 251400Z 2515/2615 09007KT 9999 FEW020 TX29/2612Z TN21/2605Z
TEMPO 2522/2608 BKN014

Example: see airport list